TNCMTFFR

Guest
Details From TNCM - St Maarten - Princess Juliana Intl
To TFFR - Pointe a Pitre Le Raizet
Flight Number -
Tags decoded
Created
Modified
Stats Distance 140 nm / 259 km
Max Altitude 0 ft / 0 m
Waypoints 2
Social Downloads 1
Likes 0
Share VATSIM

Download

Looking for another format? Having issues loading an existing format? Contact us
Advertisement - Login to hide

Notes

Requested: TNCM TFFR

Route

TNCM TFFR

ID Type Via Altitude Latitude Longitude Leg Dist Tot Dist Heading (true) Name
O TNCM APT - 0 ft / 0 m 18.04089˚ -63.10897˚ - 0 nm - St Maarten - Princess Juliana Intl
O TFFR APT - 0 ft / 0 m 16.26531˚ -61.53181˚ 139 nm 139 nm 139° / 140° Pointe a Pitre Le Raizet

Altitude Profile

Advertisement - Login to hide

TNCM

Details ICAO TNCM (SXM)
Name St Maarten - Princess Juliana Intl
Region Caribbean Netherlands, Aruba, Curaçao, Sint Maarten
Timezone Unknown (UTC+0.0)
Stats Elevation 12 ft / 4 m (AMSL)
Location 18.040889° -63.108974°
Runways 1
Magnetic Variation 14.337° W

METAR

TNCM 260200Z 08010KT 040V120 9999 SCT018 27/22 Q1017 A3004

Decode

TAF

TNCM 252339Z 2600/2624 09010KT P6SM FEW018 FEW030 FM260600 08006KT P6SM VCSH SCT018 SCT030 FM261400 11014KT P6SM SCT022

Decode

Departure Runways

ID Width Length Bearing (true) Bearing (mag) Surface Threshold Offset Overrun Length
10 148 ft / 45 m 7,464 ft / 2,275 m 81.43° 95.77° Asphalt 0 ft / 0 m 151 ft / 46 m
28 148 ft / 45 m 7,464 ft / 2,275 m 261.44° 275.78° Asphalt 397 ft / 121 m 0 ft / 0 m

TFFR

Details ICAO TFFR (PTP)
Name Pointe a Pitre Le Raizet
Region France (Guadeloupe, Martinique, Saint Barthélemy, Saint Martin)
Timezone America/Guadeloupe (UTC-4.0)
Stats Elevation 35 ft / 11 m (AMSL)
Location 16.265306° -61.531808°
Runways 1
Magnetic Variation 14.868° W

METAR

TFFR 260200Z AUTO 10009KT 9999 -RA FEW021 SCT041 BKN056 25/22 Q1017 TEMPO 4000 SHRA BKN018TCU

Decode

TAF

TAF TFFR 252200Z 2600/2624 VRB05KT 9999 SCT025 TEMPO 2602/2624 4000 SHRA BKN018TCU BECMG 2610/2612 10015KT PROB30 TEMPO 2612/2624 10015G25KT 1000 TSRA SCT005 BKN015CB

Decode

Destination Runways

ID Width Length Bearing (true) Bearing (mag) Surface Threshold Offset Overrun Length
11 148 ft / 45 m 11,513 ft / 3,509 m 100.94° 115.81° Asphalt 0 ft / 0 m 0 ft / 0 m
29 148 ft / 45 m 11,513 ft / 3,509 m 280.95° 295.82° Asphalt 0 ft / 0 m 0 ft / 0 m

Approach Navaids

Runway Type Ident Frequency Range Bearing (true) Bearing (mag) Slope Elevation
11 Localiser PP 110.30 MHz 18 nm / 33 km 100.95° 115.82° - 36 ft / 11 m (AMSL)
11 Glidescope PP 110.30 MHz 10 nm / 19 km 100.94° 115.81° 3.20° 36 ft / 11 m (AMSL)

Popular Alternatives